Time;durP1;ratioP1;P1;durP2;ratioP2;P2;SDS_P1;SDS_P2;PMS_P1;PMS_P2;Temp;Humidity;BMP_temperature;BMP_pressure;BME280_temperature;BME280_humidity;BME280_pressure;Samples;Min_cycle;Max_cycle;Signal;HPM_P1;HPM_P2
2022/06/22 04:02:19;;;;;;;5.10;1.47;;;15.40;96.30;;;;;;5125833;22;20591;-80
2022/06/22 04:04:49;;;;;;;1.97;1.23;;;15.40;96.30;;;;;;4978269;28;20935;-81
2022/06/22 04:07:14;;;;;;;5.47;1.67;;;15.50;96.30;;;;;;4995322;28;20488;-78
2022/06/22 04:09:46;;;;;;;10.93;1.50;;;15.50;96.30;;;;;;4994642;28;20979;-77
2022/06/22 04:12:19;;;;;;;2.27;1.10;;;15.60;96.30;;;;;;4977316;28;20202;-77
2022/06/22 04:14:54;;;;;;;3.70;1.40;;;15.70;96.30;;;;;;4983473;28;20813;-77
2022/06/22 04:17:36;;;;;;;2.83;1.10;;;15.60;96.30;;;;;;4991644;28;20412;-78
2022/06/22 04:20:10;;;;;;;5.80;1.20;;;15.70;96.30;;;;;;4994956;28;20393;-77
2022/06/22 04:22:40;;;;;;;3.53;1.10;;;15.70;96.30;;;;;;4994860;28;20445;-78
2022/06/22 04:25:16;;;;;;;11.10;1.23;;;15.70;96.30;;;;;;4995525;28;20516;-80
2022/06/22 04:27:48;;;;;;;2.97;1.27;;;15.70;96.30;;;;;;4995009;28;20473;-80
2022/06/22 04:30:19;;;;;;;2.60;1.20;;;15.70;96.30;;;;;;4995556;28;20393;-79
2022/06/22 04:33:04;;;;;;;3.97;1.20;;;15.70;96.30;;;;;;4977069;28;20448;-77
2022/06/22 04:35:42;;;;;;;3.10;1.20;;;15.70;96.30;;;;;;4994582;28;20417;-76
2022/06/22 04:38:26;;;;;;;4.67;1.50;;;15.70;96.30;;;;;;4993782;28;20417;-77
2022/06/22 04:41:07;;;;;;;3.77;1.10;;;15.80;96.30;;;;;;4994448;28;20451;-76
2022/06/22 04:43:35;;;;;;;2.53;1.40;;;15.80;96.30;;;;;;4994117;28;20503;-76
2022/06/22 04:46:00;;;;;;;3.40;1.30;;;15.80;96.30;;;;;;4994178;28;20409;-76
2022/06/22 04:48:30;;;;;;;2.83;0.97;;;15.80;96.30;;;;;;4991328;28;20476;-78
2022/06/22 04:51:00;;;;;;;3.00;1.30;;;15.80;96.30;;;;;;4973939;28;20694;-78
2022/06/22 04:53:30;;;;;;;1.50;1.10;;;15.90;96.30;;;;;;4990744;28;20432;-79
2022/06/22 04:55:58;;;;;;;3.17;1.00;;;16.00;96.30;;;;;;4982020;28;20833;-79
2022/06/22 04:58:42;;;;;;;5.10;1.90;;;16.00;96.30;;;;;;4937215;28;20421;-79
2022/06/22 05:01:15;;;;;;;2.57;1.30;;;16.20;96.30;;;;;;4986947;28;20460;-78
2022/06/22 05:03:40;;;;;;;1.73;1.00;;;16.30;96.10;;;;;;4989380;28;20522;-78
2022/06/22 05:06:19;;;;;;;5.17;1.37;;;16.30;96.00;;;;;;4988918;28;20417;-78
2022/06/22 05:08:54;;;;;;;2.03;1.13;;;16.50;94.90;;;;;;4988386;28;20434;-78
2022/06/22 05:11:33;;;;;;;1.90;1.10;;;16.50;95.40;;;;;;4987786;28;20978;-79
2022/06/22 05:14:00;;;;;;;2.60;1.20;;;16.50;96.20;;;;;;4987720;28;20796;-79
2022/06/22 05:16:31;;;;;;;1.23;0.97;;;16.50;95.30;;;;;;4987727;28;20514;-78
2022/06/22 05:18:58;;;;;;;3.77;1.30;;;16.60;95.00;;;;;;4985839;28;20976;-78
2022/06/22 05:21:45;;;;;;;6.40;1.40;;;16.60;95.20;;;;;;4989918;28;20459;-78
2022/06/22 05:24:24;;;;;;;1.90;1.17;;;16.70;94.60;;;;;;4993601;28;20409;-78
2022/06/22 05:26:52;;;;;;;4.80;1.30;;;16.90;94.30;;;;;;4993334;28;20412;-79
2022/06/22 05:29:29;;;;;;;3.20;1.20;;;17.10;94.20;;;;;;4992327;28;20778;-79
2022/06/22 05:31:59;;;;;;;2.77;1.30;;;17.10;93.90;;;;;;4985815;28;20774;-78
2022/06/22 05:34:36;;;;;;;4.77;1.50;;;17.20;93.50;;;;;;4993041;28;20905;-78
2022/06/22 05:37:18;;;;;;;3.00;1.23;;;17.20;92.70;;;;;;4994380;28;20416;-77
2022/06/22 05:39:44;;;;;;;4.27;1.50;;;17.30;92.60;;;;;;4985507;28;20447;-78
2022/06/22 05:42:13;;;;;;;3.20;1.23;;;17.40;92.50;;;;;;4995634;28;20483;-77
2022/06/22 05:44:38;;;;;;;6.40;1.40;;;17.60;91.60;;;;;;4995021;28;20489;-77
2022/06/22 05:47:05;;;;;;;6.53;1.47;;;17.70;92.00;;;;;;4994002;28;20546;-77
2022/06/22 05:49:41;;;;;;;1.90;1.10;;;17.90;90.60;;;;;;4994749;28;20274;-77
2022/06/22 05:52:36;;;;;;;1.97;1.00;;;17.90;91.10;;;;;;4996214;28;20437;-78
2022/06/22 05:55:17;;;;;;;3.60;1.17;;;18.90;89.90;;;;;;4996831;28;20429;-78
2022/06/22 05:57:57;;;;;;;1.83;1.37;;;21.10;84.20;;;;;;4993873;28;20420;-78
2022/06/22 06:00:28;;;;;;;4.10;1.50;;;22.70;79.10;;;;;;4990183;28;20421;-79
2022/06/22 06:03:07;;;;;;;2.90;1.37;;;22.90;76.60;;;;;;4978853;28;20461;-78
2022/06/22 06:05:40;;;;;;;5.90;1.80;;;23.50;77.00;;;;;;4975038;28;20428;-78
2022/06/22 06:08:25;;;;;;;3.50;1.20;;;24.00;74.90;;;;;;4975997;28;20423;-79
2022/06/22 06:10:51;;;;;;;2.23;1.30;;;23.10;78.50;;;;;;4988097;28;20440;-78
2022/06/22 06:13:28;;;;;;;2.03;1.30;;;23.80;75.90;;;;;;4976878;28;20793;-79
2022/06/22 06:15:58;;;;;;;2.90;1.10;;;25.30;74.10;;;;;;4985528;28;20424;-79
2022/06/22 06:18:28;;;;;;;2.90;1.40;;;26.00;71.40;;;;;;4992117;28;21039;-79
2022/06/22 06:21:02;;;;;;;4.30;1.27;;;26.60;72.00;;;;;;4992536;28;20423;-79
2022/06/22 06:23:35;;;;;;;5.90;1.70;;;26.40;71.40;;;;;;4984507;28;20955;-79
2022/06/22 06:29:05;;;;;;;3.40;1.00;;;26.90;69.20;;;;;;4992728;28;20419;-79
2022/06/22 06:31:54;;;;;;;1.57;1.10;;;26.70;69.50;;;;;;4993043;28;20481;-79
2022/06/22 06:34:31;;;;;;;1.53;1.20;;;26.50;70.40;;;;;;4991874;28;20412;-79
2022/06/22 06:37:05;;;;;;;2.87;1.03;;;26.80;69.50;;;;;;4975067;28;20431;-79
2022/06/22 06:39:36;;;;;;;3.40;1.47;;;26.80;69.00;;;;;;4977803;28;20415;-79
2022/06/22 06:42:21;;;;;;;1.97;1.30;;;26.80;70.20;;;;;;4958455;28;21197;-79
2022/06/22 06:44:47;;;;;;;4.23;1.47;;;26.10;71.30;;;;;;4965266;28;20409;-79
2022/06/22 06:47:17;;;;;;;1.83;1.27;;;24.70;72.90;;;;;;4992434;28;20448;-79
2022/06/22 06:49:48;;;;;;;5.63;1.50;;;24.50;75.90;;;;;;4991928;28;20412;-79
2022/06/22 06:52:45;;;;;;;3.57;1.67;;;24.20;76.30;;;;;;4992316;28;20967;-79
2022/06/22 06:55:25;;;;;;;3.30;1.23;;;23.90;76.20;;;;;;4992200;28;20739;-79
2022/06/22 06:58:30;;;;;;;2.60;1.30;;;23.40;76.70;;;;;;4994894;28;20531;-79
2022/06/22 07:00:56;;;;;;;4.53;1.23;;;23.60;77.60;;;;;;4994008;28;20527;-79
2022/06/22 07:03:26;;;;;;;3.63;1.33;;;23.90;76.90;;;;;;4998598;28;21037;-78
2022/06/22 07:05:52;;;;;;;1.43;1.03;;;24.30;76.90;;;;;;4997625;28;20208;-78
2022/06/22 07:08:22;;;;;;;4.50;1.60;;;24.40;75.30;;;;;;4995935;28;20427;-78
2022/06/22 07:10:58;;;;;;;4.20;1.30;;;25.10;74.60;;;;;;4996204;28;20432;-77
2022/06/22 07:13:32;;;;;;;4.00;1.20;;;25.80;73.00;;;;;;4995901;28;20424;-79
2022/06/22 07:16:03;;;;;;;2.63;1.30;;;26.50;72.40;;;;;;4995679;28;20870;-79
2022/06/22 07:18:41;;;;;;;5.23;1.20;;;27.30;69.70;;;;;;4995872;28;20499;-79
2022/06/22 07:21:19;;;;;;;4.07;1.20;;;27.50;69.30;;;;;;4978108;28;20452;-79
2022/06/22 07:24:01;;;;;;;3.77;1.30;;;28.50;68.50;;;;;;4995973;28;20463;-79
2022/06/22 07:26:37;;;;;;;2.50;1.30;;;28.90;66.80;;;;;;4995950;28;20431;-79
2022/06/22 07:29:16;;;;;;;2.97;1.37;;;28.10;67.40;;;;;;4995732;28;20428;-79
2022/06/22 07:31:49;;;;;;;3.47;1.20;;;27.10;69.20;;;;;;4995636;28;21130;-79
2022/06/22 07:34:44;;;;;;;9.50;1.33;;;26.40;72.50;;;;;;4978215;28;20427;-78
2022/06/22 07:37:30;;;;;;;1.73;1.10;;;26.80;70.60;;;;;;4981754;28;20772;-79
2022/06/22 07:40:11;;;;;;;4.30;1.40;;;26.80;70.20;;;;;;4980232;28;20482;-79
2022/06/22 07:42:37;;;;;;;1.53;1.00;;;26.90;71.20;;;;;;4978972;28;20464;-79
2022/06/22 07:45:03;;;;;;;4.40;1.10;;;27.20;69.60;;;;;;4962342;28;20435;-79
2022/06/22 07:47:40;;;;;;;3.97;1.40;;;27.20;69.60;;;;;;4985001;28;20184;-79
2022/06/22 07:50:15;;;;;;;4.07;1.60;;;27.20;71.00;;;;;;4995542;28;20400;-79
2022/06/22 07:52:57;;;;;;;1.90;1.20;;;27.60;69.00;;;;;;4977809;28;20426;-79
2022/06/22 07:55:46;;;;;;;2.07;1.50;;;27.30;69.20;;;;;;4994841;28;20471;-79
2022/06/22 07:58:20;;;;;;;1.70;1.47;;;27.60;68.30;;;;;;4994536;28;20415;-79
2022/06/22 08:00:50;;;;;;;3.50;1.20;;;27.30;68.80;;;;;;4991672;28;20546;-79
2022/06/22 08:03:33;;;;;;;8.13;1.30;;;27.40;70.00;;;;;;4992955;28;20467;-79
2022/06/22 08:06:05;;;;;;;2.10;1.40;;;27.90;67.80;;;;;;4975612;28;20748;-79
2022/06/22 08:08:41;;;;;;;1.50;1.30;;;27.60;68.20;;;;;;4974405;28;21184;-79
2022/06/22 08:11:16;;;;;;;1.60;1.40;;;27.70;68.00;;;;;;4978476;28;22058;-79
2022/06/22 08:13:51;;;;;;;5.10;1.60;;;27.80;68.70;;;;;;4977964;28;20435;-79
2022/06/22 08:16:31;;;;;;;2.83;1.33;;;28.00;68.20;;;;;;4987611;28;20431;-79
2022/06/22 08:18:58;;;;;;;2.10;1.30;;;29.10;66.70;;;;;;4977142;28;20449;-79
2022/06/22 08:21:24;;;;;;;5.03;1.70;;;30.10;64.90;;;;;;4994896;28;20475;-79
2022/06/22 08:23:51;;;;;;;5.83;1.60;;;30.10;63.30;;;;;;4994972;28;20970;-79
2022/06/22 08:26:22;;;;;;;2.23;1.33;;;29.50;64.30;;;;;;4994842;28;21002;-79
2022/06/22 08:28:49;;;;;;;8.70;1.47;;;29.00;65.40;;;;;;4993732;28;20435;-79
2022/06/22 08:31:14;;;;;;;2.90;1.37;;;29.60;64.70;;;;;;4977770;28;20534;-79
2022/06/22 08:33:46;;;;;;;2.43;1.30;;;30.00;64.80;;;;;;4994748;28;20955;-79
2022/06/22 08:36:18;;;;;;;5.13;1.70;;;30.50;62.00;;;;;;4994586;28;20180;-79
2022/06/22 08:38:57;;;;;;;4.53;1.60;;;30.50;67.10;;;;;;4994302;28;20420;-79
2022/06/22 08:41:52;;;;;;;11.10;1.30;;;31.80;61.50;;;;;;4988539;28;20443;-79
2022/06/22 08:44:56;;;;;;;3.30;1.40;;;32.00;63.20;;;;;;4977820;28;20447;-79
2022/06/22 08:47:37;;;;;;;4.73;1.67;;;30.90;61.80;;;;;;4979187;28;20412;-79
2022/06/22 08:50:08;;;;;;;6.40;1.50;;;30.60;62.30;;;;;;4982954;28;20828;-79
2022/06/22 08:53:06;;;;;;;5.97;1.60;;;29.00;64.20;;;;;;4994174;28;20440;-79
2022/06/22 08:56:03;;;;;;;4.10;1.50;;;28.90;65.50;;;;;;4993103;28;20442;-79
2022/06/22 08:58:57;;;;;;;1.97;1.27;;;30.10;66.40;;;;;;4906393;28;20455;-79
2022/06/22 09:01:47;;;;;;;3.20;1.17;;;30.00;66.70;;;;;;4992387;28;20452;-79
2022/06/22 09:04:41;;;;;;;7.03;1.40;;;30.60;63.60;;;;;;4994081;28;20787;-79
2022/06/22 09:07:32;;;;;;;5.17;1.40;;;30.70;64.00;;;;;;4994358;28;20424;-79
2022/06/22 09:10:14;;;;;;;1.90;1.23;;;30.30;62.50;;;;;;4993862;28;20412;-79
2022/06/22 09:13:06;;;;;;;2.87;1.10;;;31.50;62.50;;;;;;4993713;28;20459;-79
2022/06/22 09:15:48;;;;;;;2.90;1.33;;;30.50;62.10;;;;;;4993801;28;20431;-79
2022/06/22 09:18:44;;;;;;;3.50;1.30;;;29.20;62.50;;;;;;4993468;28;20506;-79
2022/06/22 09:21:53;;;;;;;4.90;1.00;;;29.50;60.90;;;;;;4993754;28;20441;-79
2022/06/22 09:24:20;;;;;;;1.40;1.20;;;29.20;59.90;;;;;;4897334;29;20451;-79
2022/06/22 09:26:54;;;;;;;2.30;1.30;;;29.60;63.60;;;;;;4972754;28;20417;-79
2022/06/22 09:29:38;;;;;;;1.40;1.20;;;29.90;61.50;;;;;;4973008;28;20519;-79
2022/06/22 09:32:37;;;;;;;3.80;1.40;;;30.00;59.50;;;;;;4991826;28;20590;-76
2022/06/22 09:35:27;;;;;;;3.73;1.60;;;29.80;59.60;;;;;;4993301;28;21004;-77
2022/06/22 09:38:21;;;;;;;4.33;1.30;;;31.20;58.30;;;;;;4992414;28;20420;-78
2022/06/22 09:41:20;;;;;;;2.67;1.27;;;31.20;59.90;;;;;;4987401;28;20451;-78
2022/06/22 09:44:10;;;;;;;2.30;1.30;;;31.30;57.30;;;;;;4989150;28;20463;-78
2022/06/22 09:47:33;;;;;;;2.00;1.40;;;30.00;59.00;;;;;;4989432;28;20428;-78
2022/06/22 09:50:13;;;;;;;1.97;1.20;;;29.60;59.90;;;;;;4904325;29;20435;-78
2022/06/22 09:53:13;;;;;;;1.97;1.20;;;30.10;61.30;;;;;;4882714;29;20440;-79
2022/06/22 09:58:51;;;;;;;2.60;1.40;;;28.80;61.00;;;;;;4981318;28;20478;-78
2022/06/22 10:01:54;;;;;;;2.63;1.20;;;29.60;61.90;;;;;;4993266;28;20476;-78
2022/06/22 10:04:49;;;;;;;5.07;1.30;;;29.60;62.60;;;;;;4974198;28;20480;-78
2022/06/22 10:07:57;;;;;;;4.50;1.50;;;30.10;61.40;;;;;;4974251;28;20397;-78
2022/06/22 10:10:37;;;;;;;2.97;1.50;;;29.70;61.30;;;;;;4988222;28;20795;-78
2022/06/22 10:13:18;;;;;;;1.77;1.10;;;28.70;62.90;;;;;;4985937;28;20420;-78
2022/06/22 10:15:48;;;;;;;8.40;1.50;;;29.30;65.20;;;;;;4977488;28;21094;-79
2022/06/22 10:18:35;;;;;;;3.17;1.30;;;29.70;64.40;;;;;;4959274;28;20432;-79
2022/06/22 10:21:20;;;;;;;1.93;1.43;;;30.70;60.90;;;;;;4988270;28;20966;-79
2022/06/22 10:23:59;;;;;;;15.23;1.60;;;30.70;61.10;;;;;;4992829;28;20967;-78
2022/06/22 10:26:39;;;;;;;1.90;1.63;;;31.50;62.10;;;;;;4989574;28;20829;-79
2022/06/22 10:29:27;;;;;;;2.83;1.60;;;31.60;58.40;;;;;;4992296;28;20458;-78
2022/06/22 10:32:06;;;;;;;2.23;1.33;;;32.60;59.70;;;;;;4971253;28;20971;-79
2022/06/22 10:34:51;;;;;;;2.20;1.40;;;32.80;56.40;;;;;;4973129;28;20405;-79
2022/06/22 10:37:48;;;;;;;1.70;1.30;;;31.50;58.00;;;;;;4972052;28;20409;-79
2022/06/22 10:45:08;;;;;;;3.57;1.40;;;31.00;58.80;;;;;;4984684;28;20451;-78
2022/06/22 10:46:33;;;;;;;2.53;1.63;;;30.80;58.30;;;;;;4992170;28;20422;-78
2022/06/22 10:49:13;;;;;;;5.03;1.47;;;29.60;60.30;;;;;;4991939;28;20427;-78
2022/06/22 10:52:07;;;;;;;1.60;1.23;;;30.20;59.70;;;;;;4992458;28;20439;-79
2022/06/22 10:54:35;;;;;;;2.20;1.47;;;30.70;63.20;;;;;;4992800;28;20439;-78
2022/06/22 10:57:36;;;;;;;1.87;1.30;;;30.70;63.80;;;;;;4992083;28;20862;-77
2022/06/22 11:00:04;;;;;;;2.20;1.20;;;31.10;63.30;;;;;;4976994;28;20404;-78
2022/06/22 11:03:09;;;;;;;8.10;1.63;;;32.20;61.00;;;;;;4974571;28;20995;-78
2022/06/22 11:05:54;;;;;;;2.37;1.50;;;32.10;61.00;;;;;;4992306;28;20495;-78
2022/06/22 11:08:39;;;;;;;2.50;1.60;;;32.50;60.00;;;;;;4984953;28;20452;-79
2022/06/22 11:11:33;;;;;;;3.33;1.50;;;32.60;61.50;;;;;;4976278;28;20440;-78
2022/06/22 11:14:20;;;;;;;1.80;1.17;;;31.10;58.00;;;;;;4976657;28;20412;-78
2022/06/22 11:17:04;;;;;;;4.00;1.30;;;28.70;62.10;;;;;;4993893;28;20936;-78
2022/06/22 11:19:58;;;;;;;2.33;1.40;;;28.10;67.10;;;;;;4978924;28;20939;-80
2022/06/22 11:22:32;;;;;;;9.57;1.80;;;28.90;63.00;;;;;;4984691;28;20510;-80
2022/06/22 11:31:32;;;;;;;11.27;2.20;;;29.90;61.30;;;;;;4996914;28;20431;-80
2022/06/22 11:34:06;;;;;;;20.90;2.20;;;30.70;62.00;;;;;;4995658;28;20447;-80
2022/06/22 11:37:08;;;;;;;8.80;1.77;;;30.20;61.70;;;;;;4996352;28;20420;-80
2022/06/22 11:39:55;;;;;;;2.73;1.30;;;29.00;63.70;;;;;;4998858;28;20419;-80
2022/06/22 12:15:04;;;;;;;2.90;1.53;;;29.60;64.70;;;;;;5396858;22;20517;-78
2022/06/22 12:16:50;;;;;;;2.80;1.40;;;29.10;66.20;;;;;;4987015;28;20423;-78
2022/06/22 12:19:28;;;;;;;5.30;1.97;;;29.00;66.30;;;;;;4993843;28;20406;-77
2022/06/22 12:22:28;;;;;;;2.40;1.60;;;28.80;66.00;;;;;;4963735;28;20440;-77
2022/06/22 12:25:18;;;;;;;4.63;1.60;;;28.80;65.90;;;;;;4994909;28;20896;-77
2022/06/22 12:28:08;;;;;;;1.97;1.40;;;28.70;66.30;;;;;;4977126;28;20421;-77
2022/06/22 12:31:09;;;;;;;7.93;1.43;;;28.80;65.00;;;;;;5003077;28;20443;-79
2022/06/22 12:33:40;;;;;;;2.70;1.27;;;28.80;63.50;;;;;;4952902;28;20511;-79
2022/06/22 12:36:26;;;;;;;2.53;1.80;;;28.20;64.30;;;;;;4996454;28;20400;-79
2022/06/22 12:39:05;;;;;;;6.00;1.83;;;28.10;64.10;;;;;;4996239;28;20420;-79
2022/06/22 12:42:08;;;;;;;4.80;1.73;;;28.50;66.80;;;;;;4978294;28;20436;-79
2022/06/22 12:44:52;;;;;;;5.53;1.60;;;28.90;63.20;;;;;;4980106;28;20890;-79
2022/06/22 12:47:43;;;;;;;3.63;1.60;;;28.40;64.60;;;;;;5001625;28;20432;-78
2022/06/22 12:51:00;;;;;;;156.97;5.67;;;28.80;65.40;;;;;;4997389;28;20412;-79
2022/06/22 12:53:44;;;;;;;6.37;1.53;;;28.60;65.70;;;;;;4987320;28;20435;-79
2022/06/22 12:56:19;;;;;;;2.97;1.53;;;29.10;63.10;;;;;;4997355;28;20471;-79
2022/06/22 12:59:10;;;;;;;5.70;1.70;;;29.20;64.50;;;;;;4997162;28;20506;-79
2022/06/22 13:01:36;;;;;;;2.63;1.57;;;29.40;64.20;;;;;;4997655;28;20447;-79
2022/06/22 13:04:09;;;;;;;3.60;1.50;;;29.50;62.30;;;;;;4996936;28;20983;-79
2022/06/22 13:06:38;;;;;;;1.63;1.53;;;29.50;63.60;;;;;;4979983;28;20431;-79
2022/06/22 13:09:06;;;;;;;3.93;1.40;;;29.70;62.50;;;;;;4979446;28;20958;-79
2022/06/22 13:11:32;;;;;;;3.90;1.90;;;30.10;61.90;;;;;;4996777;28;20451;-79
2022/06/22 13:13:57;;;;;;;6.90;1.40;;;30.00;61.80;;;;;;4997500;28;20428;-80
2022/06/22 13:16:40;;;;;;;5.83;1.60;;;29.40;61.20;;;;;;4981443;28;20181;-80
2022/06/22 13:19:35;;;;;;;7.53;1.80;;;29.40;64.00;;;;;;4990026;28;20171;-80
2022/06/22 13:22:23;;;;;;;3.30;1.57;;;30.80;65.00;;;;;;4982840;28;20440;-80
2022/06/22 13:24:58;;;;;;;5.07;1.67;;;31.40;63.10;;;;;;4983077;28;20405;-80
2022/06/22 13:27:43;;;;;;;3.10;1.80;;;32.20;62.20;;;;;;4985120;28;20416;-81
2022/06/22 13:30:19;;;;;;;3.50;1.67;;;32.70;61.70;;;;;;4995356;28;20902;-80
2022/06/22 13:32:55;;;;;;;1.97;1.30;;;32.90;60.60;;;;;;4985535;28;20522;-80
2022/06/22 13:35:35;;;;;;;2.13;1.57;;;32.60;61.60;;;;;;4989538;28;20419;-80
2022/06/22 13:38:35;;;;;;;7.07;1.90;;;32.60;59.70;;;;;;4999618;28;20406;-81
2022/06/22 13:41:34;;;;;;;9.30;1.60;;;32.10;59.80;;;;;;4978093;28;20483;-80
2022/06/22 13:44:26;;;;;;;2.83;1.40;;;32.40;59.60;;;;;;5003346;28;20911;-80
2022/06/22 13:47:10;;;;;;;2.87;1.33;;;32.80;60.90;;;;;;4996331;28;20426;-80
2022/06/22 13:50:17;;;;;;;2.40;1.50;;;33.10;59.80;;;;;;4994410;28;20423;-80
2022/06/22 13:52:47;;;;;;;8.50;1.80;;;33.40;56.70;;;;;;4998488;28;20474;-80
2022/06/22 13:55:44;;;;;;;3.03;1.40;;;33.30;58.50;;;;;;4980864;28;20191;-80
2022/06/22 13:58:46;;;;;;;4.23;1.57;;;32.00;58.10;;;;;;4940985;28;20425;-80
2022/06/22 14:01:21;;;;;;;2.70;1.70;;;32.10;61.40;;;;;;4938952;28;20693;-81
2022/06/22 14:03:54;;;;;;;3.00;1.50;;;31.20;59.20;;;;;;4974568;28;20193;-80
2022/06/22 14:06:29;;;;;;;6.73;1.60;;;31.20;60.90;;;;;;4973476;28;20402;-80
2022/06/22 14:09:11;;;;;;;36.23;2.93;;;31.20;60.10;;;;;;4974451;28;20396;-80
2022/06/22 14:12:04;;;;;;;6.07;2.10;;;31.00;61.60;;;;;;4974144;28;20468;-80
2022/06/22 14:14:40;;;;;;;3.37;2.50;;;30.90;61.40;;;;;;4987388;28;20801;-80
2022/06/22 14:17:05;;;;;;;1.30;1.13;;;30.70;63.70;;;;;;4975300;28;20411;-80
2022/06/22 14:19:44;;;;;;;1.93;1.50;;;31.00;64.50;;;;;;4992690;28;20446;-80
2022/06/22 14:22:32;;;;;;;2.73;1.40;;;30.40;62.80;;;;;;4992640;28;20204;-80
2022/06/22 14:25:01;;;;;;;4.30;1.60;;;29.50;66.00;;;;;;4977403;28;20880;-80
2022/06/22 14:27:49;;;;;;;3.30;1.60;;;29.40;64.40;;;;;;4976465;28;20606;-79
2022/06/22 14:30:44;;;;;;;3.53;1.70;;;28.80;66.60;;;;;;4987886;28;20940;-79
2022/06/22 14:33:27;;;;;;;8.53;2.10;;;29.10;64.90;;;;;;4959471;28;20447;-80
2022/06/22 14:36:08;;;;;;;5.10;1.60;;;29.00;64.70;;;;;;4977315;28;20427;-79
2022/06/22 14:39:14;;;;;;;4.37;1.40;;;29.40;63.80;;;;;;4987168;28;20430;-80
2022/06/22 14:42:11;;;;;;;4.60;1.37;;;29.10;64.00;;;;;;4996522;28;20478;-79
2022/06/22 14:45:03;;;;;;;3.40;1.67;;;29.30;64.70;;;;;;4976035;28;20424;-80
2022/06/22 14:47:43;;;;;;;2.00;1.40;;;29.70;63.70;;;;;;4992636;28;20412;-78
2022/06/22 14:50:27;;;;;;;5.60;1.67;;;29.70;64.70;;;;;;4974794;28;20408;-80
2022/06/22 14:53:16;;;;;;;3.63;1.37;;;29.60;65.60;;;;;;4976587;28;20967;-80
2022/06/22 14:56:09;;;;;;;3.87;1.90;;;29.40;64.80;;;;;;4993234;28;20404;-79
2022/06/22 14:58:43;;;;;;;2.20;1.60;;;29.00;66.40;;;;;;4992158;28;20416;-79
2022/06/22 15:01:24;;;;;;;2.20;1.63;;;28.50;66.10;;;;;;4991185;28;20503;-79
2022/06/22 15:03:57;;;;;;;9.10;1.83;;;28.40;69.40;;;;;;4992959;28;20459;-79
2022/06/22 15:06:51;;;;;;;4.33;1.80;;;28.40;67.50;;;;;;4992852;28;20420;-79
2022/06/22 15:09:26;;;;;;;9.20;1.90;;;28.30;68.20;;;;;;4992280;28;20451;-79
2022/06/22 15:15:11;;;;;;;2.00;1.40;;;28.50;69.00;;;;;;4978685;28;20523;-80
2022/06/22 15:17:45;;;;;;;5.00;1.67;;;28.40;68.20;;;;;;4990207;28;20511;-80
2022/06/22 15:20:44;;;;;;;2.63;1.70;;;28.50;69.00;;;;;;4988965;28;20418;-80
2022/06/22 15:23:48;;;;;;;3.63;1.90;;;28.50;68.60;;;;;;4975133;28;20820;-79
2022/06/22 15:26:24;;;;;;;3.80;2.73;;;28.60;68.30;;;;;;4993894;28;20423;-79
2022/06/22 15:29:12;;;;;;;4.20;1.60;;;28.30;68.10;;;;;;4995330;28;20422;-79
2022/06/22 15:31:42;;;;;;;4.70;1.80;;;28.30;68.00;;;;;;4976525;28;20943;-79
2022/06/22 15:34:19;;;;;;;2.47;1.63;;;28.30;68.80;;;;;;4962603;28;20424;-79
2022/06/22 15:37:07;;;;;;;3.27;1.80;;;28.20;67.60;;;;;;4979719;28;20420;-80
2022/06/22 15:39:39;;;;;;;9.00;2.07;;;28.30;69.20;;;;;;4986531;28;20463;-77
2022/06/22 15:42:41;;;;;;;18.37;2.33;;;28.50;67.80;;;;;;4996086;28;20439;-80
2022/06/22 15:45:31;;;;;;;3.23;1.63;;;28.70;68.20;;;;;;4954952;28;20506;-80
2022/06/22 15:48:03;;;;;;;4.70;1.60;;;28.40;67.30;;;;;;4993222;28;20446;-80
2022/06/22 15:50:47;;;;;;;10.60;1.80;;;28.00;67.40;;;;;;4966673;28;21019;-79
2022/06/22 15:53:19;;;;;;;3.73;1.53;;;27.90;67.40;;;;;;4978561;28;20452;-79
2022/06/22 15:56:10;;;;;;;6.90;1.43;;;27.80;67.90;;;;;;4995426;28;20420;-79
2022/06/22 15:58:58;;;;;;;4.60;1.90;;;27.80;68.90;;;;;;4995790;28;20420;-79
2022/06/22 16:01:33;;;;;;;6.83;1.70;;;27.70;68.60;;;;;;4998479;28;20447;-78
2022/06/22 16:04:41;;;;;;;4.33;2.10;;;27.60;71.20;;;;;;4975576;28;20534;-79
2022/06/22 16:07:21;;;;;;;5.47;2.10;;;27.40;70.30;;;;;;4965432;28;20473;-79
2022/06/22 16:09:58;;;;;;;77.80;4.90;;;27.20;72.80;;;;;;4978334;28;20419;-81
2022/06/22 16:15:54;;;;;;;8.87;1.73;;;26.70;72.90;;;;;;4994888;28;20563;-77
2022/06/22 16:18:37;;;;;;;4.83;1.67;;;26.60;73.60;;;;;;4995402;28;20440;-79
2022/06/22 16:21:26;;;;;;;2.93;1.63;;;26.50;73.10;;;;;;4978899;28;20435;-78
2022/06/22 16:23:59;;;;;;;2.43;1.43;;;26.40;74.60;;;;;;4995951;28;20451;-79
2022/06/22 16:26:36;;;;;;;4.23;1.80;;;26.40;72.30;;;;;;4998939;28;20467;-79
2022/06/22 16:29:11;;;;;;;10.53;1.80;;;26.30;72.80;;;;;;4997808;28;20439;-79
2022/06/22 16:31:47;;;;;;;9.17;1.60;;;26.30;73.90;;;;;;4999438;28;20439;-79
2022/06/22 16:34:21;;;;;;;10.47;1.57;;;26.30;73.80;;;;;;4998415;28;20416;-79
2022/06/22 16:37:34;;;;;;;4.70;1.87;;;26.50;75.20;;;;;;4996715;28;20443;-79
2022/06/22 16:40:02;;;;;;;2.40;1.63;;;26.50;74.40;;;;;;4996485;28;20888;-80
2022/06/22 16:42:55;;;;;;;4.13;1.80;;;26.20;74.50;;;;;;4996434;28;20483;-79
2022/06/22 16:45:34;;;;;;;12.53;1.60;;;26.20;73.50;;;;;;4996631;28;20404;-77
2022/06/22 16:48:06;;;;;;;6.20;1.60;;;26.10;76.80;;;;;;4993370;28;21086;-78
2022/06/22 16:50:45;;;;;;;6.53;1.80;;;26.10;75.70;;;;;;4977154;28;20754;-78
2022/06/22 16:53:15;;;;;;;14.73;2.10;;;26.30;74.80;;;;;;4994549;28;20566;-78
2022/06/22 16:55:44;;;;;;;5.63;1.63;;;26.50;75.00;;;;;;4977168;28;20416;-78
2022/06/22 16:58:19;;;;;;;3.97;1.67;;;26.80;74.90;;;;;;4987160;28;20463;-76
2022/06/22 17:01:01;;;;;;;4.00;2.00;;;26.90;75.00;;;;;;4992701;28;20445;-77
2022/06/22 17:03:47;;;;;;;3.00;1.57;;;27.00;74.50;;;;;;4993137;28;20452;-77
2022/06/22 17:06:35;;;;;;;2.53;1.93;;;26.90;74.00;;;;;;4993959;28;20412;-78
2022/06/22 17:09:10;;;;;;;2.53;1.87;;;26.90;71.20;;;;;;4994130;28;20405;-78
2022/06/22 17:11:40;;;;;;;3.47;1.50;;;26.80;71.00;;;;;;4976895;28;20570;-78
2022/06/22 17:14:30;;;;;;;4.50;1.60;;;26.60;72.80;;;;;;4994012;28;20484;-78
2022/06/22 17:17:27;;;;;;;3.07;1.80;;;26.50;74.60;;;;;;4988926;28;20586;-77
2022/06/22 17:20:09;;;;;;;11.93;1.77;;;26.20;73.80;;;;;;4994109;28;20416;-78
2022/06/22 17:23:03;;;;;;;4.30;1.90;;;26.10;74.50;;;;;;4993816;28;20456;-78
2022/06/22 17:25:51;;;;;;;1.60;1.50;;;26.10;73.40;;;;;;4992481;28;20412;-78
2022/06/22 17:28:34;;;;;;;2.67;1.50;;;26.00;75.60;;;;;;4992477;28;20432;-78
2022/06/22 17:31:07;;;;;;;5.53;2.00;;;26.00;74.80;;;;;;4995650;28;20464;-80
2022/06/22 17:33:57;;;;;;;2.20;1.60;;;26.00;74.50;;;;;;4996660;28;20452;-77
2022/06/22 17:36:43;;;;;;;12.30;2.00;;;25.90;76.50;;;;;;4994105;28;20412;-76
2022/06/22 17:39:36;;;;;;;3.47;1.20;;;25.60;76.50;;;;;;4990557;28;20427;-78
2022/06/22 17:42:30;;;;;;;4.97;1.83;;;25.40;76.80;;;;;;4993296;28;20471;-80
2022/06/22 17:45:22;;;;;;;5.70;1.90;;;25.10;78.60;;;;;;4993595;28;20397;-78
2022/06/22 17:47:58;;;;;;;3.33;1.83;;;24.90;79.30;;;;;;4992915;28;20416;-78
2022/06/22 17:50:32;;;;;;;2.33;1.43;;;24.60;79.10;;;;;;4993105;28;20435;-80
2022/06/22 17:53:03;;;;;;;4.33;1.50;;;24.50;81.50;;;;;;4992797;28;20397;-78
2022/06/22 17:55:32;;;;;;;4.03;1.80;;;24.40;79.80;;;;;;4993141;28;20886;-78
2022/06/22 17:58:02;;;;;;;4.80;1.70;;;24.30;80.70;;;;;;4991927;28;20401;-77
2022/06/22 18:00:41;;;;;;;6.73;1.37;;;24.20;82.70;;;;;;4990387;28;20447;-80
2022/06/22 18:03:19;;;;;;;2.40;1.80;;;24.10;81.80;;;;;;4995835;28;20830;-76
2022/06/22 18:06:12;;;;;;;1.40;1.30;;;24.10;83.10;;;;;;4977750;28;20448;-76
2022/06/22 18:08:43;;;;;;;8.33;2.30;;;24.10;82.50;;;;;;4976185;28;20409;-78
2022/06/22 18:26:44;;;;;;;1.90;1.70;;;23.80;83.40;;;;;;5009436;23;20988;-67
2022/06/22 18:29:28;;;;;;;2.90;1.93;;;23.70;83.90;;;;;;4991868;28;20440;-65
2022/06/22 18:32:02;;;;;;;3.03;1.83;;;23.60;84.80;;;;;;5063722;23;20840;-66
2022/06/22 18:34:43;;;;;;;2.50;1.53;;;23.50;83.80;;;;;;5031739;28;20919;-66
2022/06/22 18:37:22;;;;;;;4.73;1.67;;;23.30;83.60;;;;;;5031845;28;20403;-65
2022/06/22 18:42:50;;;;;;;2.80;1.30;;;22.90;86.60;;;;;;5012121;28;20484;-65
2022/06/22 18:45:30;;;;;;;6.03;1.60;;;22.70;87.40;;;;;;5012106;28;20408;-64
2022/06/22 18:48:03;;;;;;;6.80;1.40;;;22.50;88.20;;;;;;5011814;28;20495;-65
2022/06/22 18:50:42;;;;;;;2.37;1.23;;;22.20;89.20;;;;;;5011633;28;20420;-65
2022/06/22 18:53:20;;;;;;;5.87;1.90;;;22.00;89.50;;;;;;5013527;28;20502;-65
2022/06/22 18:56:12;;;;;;;2.60;1.60;;;21.80;90.10;;;;;;5015664;28;20455;-65
2022/06/22 18:58:45;;;;;;;2.10;1.43;;;21.60;90.80;;;;;;5011804;28;20588;-64
2022/06/22 19:01:23;;;;;;;2.10;1.60;;;21.40;92.10;;;;;;5015525;28;20435;-64
2022/06/22 19:03:57;;;;;;;4.03;1.43;;;21.10;93.70;;;;;;5015705;28;20451;-64
2022/06/22 19:06:28;;;;;;;2.70;1.53;;;20.90;94.80;;;;;;5015757;28;20404;-65
2022/06/22 19:09:05;;;;;;;4.13;1.90;;;20.70;95.70;;;;;;5015711;28;20495;-64